1960 Tropical Low NOT_NAMED (1960364S07096)


IBTrACS version v04r00. Visit IBTrACS website for data access.
Please direct all questions to the IBTrACS Q and A forum

Storm track - Intensity - Wind Radii - Intensity Data - Source Data - All data

Summary Information

Storm ID 1960364S07096
Start Dec 28 16Z
Max Intensity 30 kt (Dec 30 06Z)
End Jan 3 01Z
ATCF IDs ,SH071961
Track status Best track data.
Spur track This storm is a spur track associated with the main storm: 1961001S13092

Storm track plot

Map of storm track

Intensity plots

Map of storm track

Radial wind information

No radial wind information for this storm


Position and Intensity Table

BASIN ISO_TIME_________ NATURE LAT LON WMO PRES BOM PRES DS824 WIND NEUMANN WIND
degrees north degrees east mb mb kts kts
SI 1960-12-28 16:00:00 NR -7.00 96.00
SI 18:00:00 TS -7.00 96.00 25
SI 21:00:00 TS -6.98 96.03 25
SI 1960-12-29 00:00:00 TS -7.04 95.98 25 20
SI 01:00:00 TS -7.10 95.93 1000 1000 25 20
SI 03:00:00 TS -7.26 95.80 1000 25 20
SI 04:00:00 TS -7.37 95.71 1000 1000 25 20
SI 06:00:00 TS -7.58 95.55 1000 25 20
SI 07:00:00 TS -7.69 95.46 1000 1000 25 20
SI 09:00:00 TS -7.95 95.29 1000 25 22
SI 10:00:00 TS -8.09 95.21 1000 1000 25 23
SI 12:00:00 TS -8.36 95.03 1000 25 25
SI 15:00:00 TS -8.73 94.78 1000 25 25
SI 16:00:00 TS -8.85 94.70 1000 1000 25 25
SI 18:00:00 TS -9.10 94.55 1000 25 25
SI 19:00:00 TS -9.23 94.46 1000 1000 25 25
SI 21:00:00 TS -9.50 94.29 1000 25 25
SI 22:00:00 TS -9.63 94.21 1000 1000 25 25
SI 1960-12-30 00:00:00 TS -9.88 94.09 1000 25 25
SI 01:00:00 TS -9.99 94.05 1000 1000 25 25
SI 03:00:00 TS -10.18 94.01 1000 25 27
SI 04:00:00 TS -10.26 94.00 1000 1000 25 28
SI 06:00:00 TS -10.44 93.99 1000 25 30
SI 07:00:00 TS -10.53 93.99 1000 1000 25 30
SI 09:00:00 TS -10.69 93.99 1000 25 30
SI 10:00:00 TS -10.77 93.99 1000 1000 25 30
SI 12:00:00 TS -10.94 93.99 1000 25 30
SI 15:00:00 TS -11.19 94.00 1000 25 30
SI 16:00:00 TS -11.27 94.00 1000 1000 25 30
SI 18:00:00 TS -11.44 94.00 1000 25 30
SI 19:00:00 TS -11.52 94.00 1000 1000 25 30
SI 21:00:00 TS -11.67 94.00 1000 25 30
SI 22:00:00 TS -11.75 94.00 1000 1000 25 30
SI 1960-12-31 00:00:00 TS -11.88 94.02 1000 25 30
SI 01:00:00 TS -11.95 94.04 1000 1000 25 30
SI 03:00:00 TS -12.06 94.10 1000 25 30
SI 04:00:00 TS -12.12 94.14 1000 1000 25 30
SI 06:00:00 TS -12.24 94.23 1000 25 30
SI 07:00:00 TS -12.29 94.28 1000 1000 25 30
SI 09:00:00 TS -12.39 94.37 1000 25 30
SI 10:00:00 TS -12.44 94.42 1000 1000 25 30
SI 12:00:00 TS -12.53 94.32 1000 25 30
SI 15:00:00 TS -12.67 94.26 1000 25 30
SI 16:00:00 TS -12.72 94.13 1000 25 30
SI 18:00:00 TS -12.82 93.98 1000 25 30
SI 19:00:00 TS -12.86 93.97 1000 1000 25 30
SI 21:00:00 TS -12.94 94.04 1000 25 30
SI 22:00:00 TS -12.98 94.08 1000 1000 25 30
SI 1961-01-01 00:00:00 TS -13.06 94.23 1000 25 30
SI 01:00:00 TS -13.11 94.32 1000 1000 25 29
SI 03:00:00 TS -13.22 94.51 1000 25 27
SI 04:00:00 TS -13.28 94.61 1000 1000 25 26
SI 06:00:00 TS -13.40 94.83 1000 25 25
SI 07:00:00 TS -13.46 94.95 1000 1000 25 25
SI 09:00:00 TS -13.58 95.16 1000 25 25
SI 10:00:00 TS -13.64 95.27 1000 1000 25 25
SI 12:00:00 TS -13.77 95.48 1000 25 25
SI 15:00:00 TS -13.97 95.77 1000 25 25
SI 16:00:00 TS -14.04 95.86 1000 25 25
SI 18:00:00 TS -14.19 96.03 1000 25 25
SI 21:00:00 TS -14.42 96.24 1000 25 25
SI 22:00:00 TS -14.50 96.30 1000 1000 25 25
SI 1961-01-02 00:00:00 TS -14.66 96.41 1000 25 25
SI 01:00:00 TS -14.74 96.46 1000 1000 25 24
SI 03:00:00 TS -14.90 96.57 1000 25 22
SI 04:00:00 TS -14.99 96.62 1000 1000 25 21
SI 06:00:00 TS -15.17 96.74 1000 25 20
SI 07:00:00 TS -15.26 96.80 1000 1000 25 20
SI 09:00:00 TS -15.41 96.95 1000 25 20
SI 10:00:00 TS -15.46 97.04 1000 1000 25 20
SI 12:00:00 TS -15.59 97.21 1000 25 20
SI 15:00:00 TS -15.79 97.41 1000
SI 16:00:00 TS -15.86 97.46 1000 1000
SI 18:00:00 TS -16.03 97.56 1000
SI 19:00:00 TS -16.11 97.60 1000 1000
SI 21:00:00 TS -16.35 97.71 1000
SI 22:00:00 TS -16.46 97.77 1000 1000
SI 1961-01-03 00:00:00 TS -16.68 97.88 1000
SI 01:00:00 NR -17.00 98.00 1000 1000

Source Information

Agency Information
USA bsh071961.txt
TOKYO
CMA
HKO
NEWDELHI
REUNION
BOM IDCKMSTM0S.csv:Line=3076:unnamed
NADI
WELLINGTON
DS824 s_hem.dat:807:08S
TD9636 cons_worldwide_trop_cyclone_18710101-19891231-006:Line=5764
TD9635
NEUMANN tracks.sh:Storm=5:HSK0561:BSH0761:JTWC
MLC

All available IBTrACS Data

SEASON BASIN SUBBASIN ISO_TIME_________ NATURE LAT LON WMO PRES WMO AGENCY DIST2LAND LANDFALL IFLAG USA AGENCY USA ATCF_ID USA LAT USA LON USA SSHS BOM LAT BOM LON BOM PRES DS824 LAT DS824 LON DS824 STAGE DS824 WIND TD9636 LAT TD9636 LON TD9636 STAGE NEUMANN LAT NEUMANN LON NEUMANN CLASS NEUMANN WIND STORM SPEED STORM DIR
Year degrees north degrees east mb km km degrees north degrees east 1 degrees north degrees east mb degrees north degrees east kts degrees north degrees east degrees north degrees east kts kts degrees
1961 SI WA 1960-12-28 16:00:00 NR -7.00 96.00 675 675 __________O___ -1 -7.00 96.00 7 0 0
1961 SI WA 18:00:00 TS -7.00 96.00 675 675 O________OP___ jtwc_sh SH071961 -7.00 96.00 -1 -7.00 96.00 TC 25 -7.00 96.01 7 0 0
1961 SI WA 21:00:00 TS -6.98 96.03 675 675 P________PP___ SH071961 -6.96 96.04 -1 -6.96 96.04 TC 25 -7.01 96.01 7 1 0
1961 SI WA 1960-12-29 00:00:00 TS -7.04 95.98 675 685 O________OP_O_ jtwc_sh SH071961 -7.00 96.00 -1 -7.00 96.00 TC 25 -7.08 95.97 7 -7.30 95.80 TC 20 2 217
1961 SI WA 01:00:00 TS -7.10 95.93 1000 bom 690 690 P_____O__PP_P_ SH071961 -7.05 95.96 -1 -7.00 96.00 1000 -7.05 95.96 TC 25 -7.12 95.94 7 -7.41 95.70 TC 20 6 219
1961 SI WA 03:00:00 TS -7.26 95.80 715 715 P_____P__PP_P_ SH071961 -7.19 95.84 -1 -7.20 95.88 1000 -7.19 95.84 TC 25 -7.23 95.86 7 -7.64 95.49 TC 20 7 218
1961 SI WA 04:00:00 TS -7.37 95.71 1000 bom 730 730 P_____O__PO_P_ SH071961 -7.28 95.76 -1 -7.30 95.80 1000 -7.28 95.76 TC 25 -7.30 95.80 7 -7.75 95.39 TC 20 8 218
1961 SI WA 06:00:00 TS -7.58 95.55 761 761 O_____P__OP_O_ jtwc_sh SH071961 -7.50 95.60 -1 -7.49 95.61 1000 -7.50 95.60 TC 25 -7.48 95.66 7 -8.00 95.20 TC 20 8 217
1961 SI WA 07:00:00 TS -7.69 95.46 1000 bom 770 770 P_____O__PP_P_ SH071961 -7.62 95.52 -1 -7.60 95.50 1000 -7.62 95.52 TC 25 -7.59 95.57 7 -8.13 95.11 TC 20 9 214
1961 SI WA 09:00:00 TS -7.95 95.29 810 810 P_____P__PP_P_ SH071961 -7.89 95.36 -1 -7.86 95.30 1000 -7.89 95.36 TC 25 -7.84 95.39 7 -8.40 94.93 TC 22 9 213
1961 SI WA 10:00:00 TS -8.09 95.21 1000 bom 826 826 P_____O__PP_P_ SH071961 -8.02 95.27 -1 -8.00 95.20 1000 -8.02 95.27 TC 25 -7.97 95.29 7 -8.54 94.85 TC 23 10 212
1961 SI WA 12:00:00 TS -8.36 95.03 866 866 O_____P__OP_O_ jtwc_sh SH071961 -8.30 95.10 -1 -8.27 95.02 1000 -8.30 95.10 TC 25 -8.24 95.08 7 -8.80 94.70 TC 25 9 213
1961 SI WA 15:00:00 TS -8.73 94.78 906 916 P_____P__PP_P_ SH071961 -8.65 94.85 -1 -8.67 94.77 1000 -8.65 94.85 TC 25 -8.66 94.79 7 -9.16 94.48 TC 25 9 213
1961 SI WA 16:00:00 TS -8.85 94.70 1000 bom 931 931 P_____O__PO_P_ SH071961 -8.76 94.77 -1 -8.80 94.70 1000 -8.76 94.77 TC 25 -8.80 94.70 7 -9.27 94.42 TC 25 9 212
1961 SI WA 18:00:00 TS -9.10 94.55 961 961 O_____P__OP_O_ jtwc_sh SH071961 -9.00 94.60 -1 -9.07 94.57 1000 -9.00 94.60 TC 25 -9.05 94.54 7 -9.50 94.30 TC 25 9 212
1961 SI WA 19:00:00 TS -9.23 94.46 1000 bom 971 971 P_____O__PP_P_ SH071961 -9.13 94.51 -1 -9.20 94.50 1000 -9.13 94.51 TC 25 -9.17 94.47 7 -9.62 94.24 TC 25 9 213
1961 SI WA 21:00:00 TS -9.50 94.29 1011 1011 P_____P__PP_P_ SH071961 -9.41 94.32 -1 -9.47 94.30 1000 -9.41 94.32 TC 25 -9.42 94.33 7 -9.86 94.12 TC 25 9 212
1961 SI WA 22:00:00 TS -9.63 94.21 1000 bom 1026 1026 P_____O__PP_P_ SH071961 -9.54 94.24 -1 -9.60 94.20 1000 -9.54 94.24 TC 25 -9.54 94.27 7 -9.98 94.07 TC 25 9 208
1961 SI WA 1960-12-30 00:00:00 TS -9.88 94.09 1061 1061 O_____P__OP_O_ jtwc_sh SH071961 -9.80 94.10 -1 -9.88 94.05 1000 -9.80 94.10 TC 25 -9.77 94.16 7 -10.20 94.00 TC 25 8 204
1961 SI WA 01:00:00 TS -9.99 94.05 1000 bom 1076 1076 P_____O__PP_P_ SH071961 -9.91 94.06 -1 -10.00 94.00 1000 -9.91 94.06 TC 25 -9.88 94.11 7 -10.29 93.98 TC 25 6 195
1961 SI WA 03:00:00 TS -10.18 94.01 1095 1095 P_____P__PP_P_ SH071961 -10.12 94.01 -1 -10.14 93.99 1000 -10.12 94.01 TC 25 -10.10 94.03 7 -10.46 93.98 TC 27 6 190
1961 SI WA 04:00:00 TS -10.26 94.00 1000 bom 1105 1105 P_____O__PO_P_ SH071961 -10.22 94.00 -1 -10.20 94.00 1000 -10.22 94.00 TC 25 -10.20 94.00 7 -10.54 93.98 TC 28 5 184
1961 SI WA 06:00:00 TS -10.44 93.99 1115 1125 O_____P__OP_O_ jtwc_sh SH071961 -10.40 94.00 -1 -10.40 94.00 1000 -10.40 94.00 TC 25 -10.39 93.96 7 -10.70 94.00 TC 30 5 0
1961 SI WA 07:00:00 TS -10.53 93.99 1000 bom 1125 1125 P_____O__PP_P_ SH071961 -10.49 93.99 -1 -10.50 94.00 1000 -10.49 93.99 TC 25 -10.48 93.95 7 -10.78 94.00 TC 30 5 184
1961 SI WA 09:00:00 TS -10.69 93.99 1144 1144 P_____P__PP_P_ SH071961 -10.66 93.99 -1 -10.64 94.00 1000 -10.66 93.99 TC 25 -10.66 93.94 7 -10.95 94.00 TC 30 5 184
1961 SI WA 10:00:00 TS -10.77 93.99 1000 bom 1154 1154 P_____O__PP_P_ SH071961 -10.74 93.99 -1 -10.70 94.00 1000 -10.74 93.99 TC 25 -10.74 93.94 7 -11.03 94.00 TC 30 5 177
1961 SI WA 12:00:00 TS -10.94 93.99 1164 1164 O_____P__OP_O_ jtwc_sh SH071961 -10.90 94.00 -1 -10.85 94.00 1000 -10.90 94.00 TC 25 -10.90 93.95 7 -11.20 94.00 TC 30 5 179
1961 SI WA 15:00:00 TS -11.19 94.00 1194 1194 P_____P__PP_P_ SH071961 -11.16 94.00 -1 -11.11 94.00 1000 -11.16 94.00 TC 25 -11.12 93.99 7 -11.46 93.99 TC 30 5 0
1961 SI WA 16:00:00 TS -11.27 94.00 1000 bom 1204 1204 P_____O__PO_P_ SH071961 -11.24 94.00 -1 -11.20 94.00 1000 -11.24 94.00 TC 25 -11.20 94.00 7 -11.54 93.99 TC 30 5 178
1961 SI WA 18:00:00 TS -11.44 94.00 1214 1223 O_____P__OP_O_ jtwc_sh SH071961 -11.40 94.00 -1 -11.40 94.00 1000 -11.40 94.00 TC 25 -11.36 94.00 7 -11.70 94.00 TC 30 5 183
1961 SI WA 19:00:00 TS -11.52 94.00 1000 bom 1223 1223 P_____O__PP_P_ SH071961 -11.47 93.99 -1 -11.50 94.00 1000 -11.47 93.99 TC 25 -11.44 94.00 7 -11.77 94.01 TC 30 5 186
1961 SI WA 21:00:00 TS -11.67 94.00 1243 1243 P_____P__PP_P_ SH071961 -11.61 93.99 -1 -11.71 94.00 1000 -11.61 93.99 TC 25 -11.60 94.00 7 -11.91 94.03 TC 30 5 0
1961 SI WA 22:00:00 TS -11.75 94.00 1000 bom 1243 1243 P_____O__PP_P_ SH071961 -11.67 93.98 -1 -11.80 94.00 1000 -11.67 93.98 TC 25 -11.68 94.01 7 -11.98 94.05 TC 30 4 176
1961 SI WA 1960-12-31 00:00:00 TS -11.88 94.02 1263 1263 O_____P__OP_O_ jtwc_sh SH071961 -11.80 94.00 -1 -11.95 93.99 1000 -11.80 94.00 TC 25 -11.83 94.02 7 -12.10 94.10 TC 30 4 167
1961 SI WA 01:00:00 TS -11.95 94.04 1000 bom 1263 1263 P_____O__PP_P_ SH071961 -11.87 94.02 -1 -12.00 94.00 1000 -11.87 94.02 TC 25 -11.90 94.04 7 -12.16 94.14 TC 30 4 157
1961 SI WA 03:00:00 TS -12.06 94.10 1279 1279 P_____P__PP_P_ SH071961 -12.01 94.08 -1 -12.06 94.05 1000 -12.01 94.08 TC 25 -12.04 94.07 7 -12.26 94.24 TC 30 4 151
1961 SI WA 04:00:00 TS -12.12 94.14 1000 bom 1279 1272 P_____O__PO_P_ SH071961 -12.07 94.11 -1 -12.10 94.10 1000 -12.07 94.11 TC 25 -12.10 94.10 7 -12.31 94.29 TC 30 4 143
1961 SI WA 06:00:00 TS -12.24 94.23 1280 1280 O_____P__OP_O_ jtwc_sh SH071961 -12.20 94.20 -1 -12.24 94.24 1000 -12.20 94.20 TC 25 -12.22 94.18 7 -12.40 94.40 TC 30 4 141
1961 SI WA 07:00:00 TS -12.29 94.28 1000 bom 1280 1280 P_____O__PP_P_ SH071961 -12.26 94.24 -1 -12.30 94.30 1000 -12.26 94.24 TC 25 -12.28 94.22 7 -12.45 94.45 TC 30 4 137
1961 SI WA 09:00:00 TS -12.39 94.37 1281 1281 P_____P__PP_P_ SH071961 -12.36 94.34 -1 -12.37 94.37 1000 -12.36 94.34 TC 25 -12.38 94.32 7 -12.56 94.56 TC 30 4 136
1961 SI WA 10:00:00 TS -12.44 94.42 1000 bom 1281 1281 P_____O__PP_P_ SH071961 -12.41 94.39 -1 -12.40 94.40 1000 -12.41 94.39 TC 25 -12.43 94.38 7 -12.61 94.61 TC 30 3 202
1961 SI WA 12:00:00 TS -12.53 94.32 1296 1296 O_____P__OP_O_ jtwc_sh SH071961 -12.50 94.50 -1 -12.48 94.48 1000 -12.50 94.50 TC 25 -12.52 94.49 7 -12.70 94.70 TC 30 3 214
1961 SI WA 15:00:00 TS -12.67 94.26 1313 1320 P_____P__PP_P_ SH071961 -12.66 94.66 -1 -12.62 94.62 1000 -12.66 94.66 TC 25 -12.66 94.65 7 -12.80 94.81 TC 30 4 225
1961 SI WA 16:00:00 TS -12.72 94.13 1327 1327 P_____P__PO_P_ SH071961 -12.71 94.71 -1 -12.67 94.67 1000 -12.71 94.71 TC 25 -12.70 94.70 7 -12.83 94.84 TC 30 6 242
1961 SI WA 18:00:00 TS -12.82 93.98 1343 1343 O_____P__OP_O_ jtwc_sh SH071961 -12.80 94.80 -1 -12.76 94.76 1000 -12.80 94.80 TC 25 -12.78 94.77 7 -12.90 94.90 TC 30 4 225
1961 SI WA 19:00:00 TS -12.86 93.97 1000 bom 1351 1351 P_____O__PP_P_ SH071961 -12.83 94.84 -1 -12.80 94.80 1000 -12.83 94.84 TC 25 -12.81 94.81 7 -12.94 94.93 TC 30 3 157
1961 SI WA 21:00:00 TS -12.94 94.04 1351 1351 P_____P__PP_P_ SH071961 -12.89 94.91 -1 -12.87 94.87 1000 -12.89 94.91 TC 25 -12.88 94.87 7 -13.03 94.99 TC 30 3 140
1961 SI WA 22:00:00 TS -12.98 94.08 1000 bom 1352 1345 P_____O__PP_P_ SH071961 -12.92 94.94 -1 -12.90 94.90 1000 -12.92 94.94 TC 25 -12.92 94.90 7 -13.08 95.03 TC 30 4 123
1961 SI WA 1961-01-01 00:00:00 TS -13.06 94.23 1353 1346 O_____P__OP_O_ jtwc_sh SH071961 -13.00 95.00 -1 -12.96 94.97 1000 -13.00 95.00 TC 25 -13.00 94.96 7 -13.20 95.10 TC 30 5 118
1961 SI WA 01:00:00 TS -13.11 94.32 1000 bom 1346 1339 P_____O__PP_P_ SH071961 -13.05 95.03 -1 -13.00 95.00 1000 -13.05 95.03 TC 25 -13.04 94.99 7 -13.27 95.14 TC 29 6 120
1961 SI WA 03:00:00 TS -13.22 94.51 1340 1333 P_____P__PP_P_ SH071961 -13.18 95.09 -1 -13.12 95.06 1000 -13.18 95.09 TC 25 -13.14 95.06 7 -13.44 95.24 TC 27 7 120
1961 SI WA 04:00:00 TS -13.28 94.61 1000 bom 1342 1335 P_____O__PO_P_ SH071961 -13.25 95.13 -1 -13.20 95.10 1000 -13.25 95.13 TC 25 -13.20 95.10 7 -13.52 95.29 TC 26 7 120
1961 SI WA 06:00:00 TS -13.40 94.83 1336 1328 O_____P__OP_O_ jtwc_sh SH071961 -13.40 95.20 -1 -13.40 95.24 1000 -13.40 95.20 TC 25 -13.34 95.19 7 -13.70 95.40 TC 25 7 120
1961 SI WA 07:00:00 TS -13.46 94.95 1000 bom 1337 1322 P_____O__PP_P_ SH071961 -13.48 95.24 -1 -13.50 95.30 1000 -13.48 95.24 TC 25 -13.41 95.24 7 -13.78 95.45 TC 25 7 119
1961 SI WA 09:00:00 TS -13.58 95.16 1324 1317 P_____P__PP_P_ SH071961 -13.64 95.34 -1 -13.64 95.37 1000 -13.64 95.34 TC 25 -13.58 95.34 7 -13.95 95.56 TC 25 7 119
1961 SI WA 10:00:00 TS -13.64 95.27 1000 bom 1317 1317 P_____O__PP_P_ SH071961 -13.73 95.39 -1 -13.70 95.40 1000 -13.73 95.39 TC 25 -13.66 95.39 7 -14.03 95.61 TC 25 7 122
1961 SI WA 12:00:00 TS -13.77 95.48 1319 1306 O_____P__OP_O_ jtwc_sh SH071961 -13.90 95.50 -1 -13.86 95.48 1000 -13.90 95.50 TC 25 -13.84 95.50 7 -14.20 95.70 TC 25 7 124
1961 SI WA 15:00:00 TS -13.97 95.77 1306 1306 P_____P__PP_P_ SH071961 -14.15 95.66 -1 -14.15 95.61 1000 -14.15 95.66 TC 25 -14.11 95.65 7 -14.45 95.80 TC 25 7 127
1961 SI WA 16:00:00 TS -14.04 95.86 1298 1296 P_____P__PO_P_ SH071961 -14.23 95.71 -1 -14.25 95.65 1000 -14.23 95.71 TC 25 -14.20 95.70 7 -14.53 95.83 TC 25 7 131
1961 SI WA 18:00:00 TS -14.19 96.03 1303 1293 O_____P__OP_O_ jtwc_sh SH071961 -14.40 95.80 -1 -14.45 95.74 1000 -14.40 95.80 TC 25 -14.37 95.78 7 -14.70 95.90 TC 25 6 136
1961 SI WA 21:00:00 TS -14.42 96.24 1300 1292 P_____P__PP_P_ SH071961 -14.65 95.90 -1 -14.72 95.86 1000 -14.65 95.90 TC 25 -14.62 95.88 7 -14.95 96.03 TC 25 6 140
1961 SI WA 22:00:00 TS -14.50 96.30 1000 bom 1299 1299 P_____O__PP_P_ SH071961 -14.73 95.93 -1 -14.80 95.90 1000 -14.73 95.93 TC 25 -14.70 95.92 7 -15.03 96.08 TC 25 6 146
1961 SI WA 1961-01-02 00:00:00 TS -14.66 96.41 1306 1298 O_____P__OP_O_ jtwc_sh SH071961 -14.90 96.00 -1 -14.93 95.96 1000 -14.90 96.00 TC 25 -14.87 96.00 7 -15.20 96.20 TC 25 6 146
1961 SI WA 01:00:00 TS -14.74 96.46 1000 bom 1298 1298 P_____O__PP_P_ SH071961 -14.98 96.04 -1 -15.00 96.00 1000 -14.98 96.04 TC 25 -14.95 96.04 7 -15.28 96.27 TC 24 6 147
1961 SI WA 03:00:00 TS -14.90 96.57 1305 1305 P_____P__PP_P_ SH071961 -15.15 96.13 -1 -15.13 96.12 1000 -15.15 96.13 TC 25 -15.12 96.14 7 -15.45 96.44 TC 22 6 148
1961 SI WA 04:00:00 TS -14.99 96.62 1000 bom 1313 1305 P_____O__PO_P_ SH071961 -15.23 96.18 -1 -15.20 96.20 1000 -15.23 96.18 TC 25 -15.20 96.20 7 -15.53 96.52 TC 21 6 148
1961 SI WA 06:00:00 TS -15.17 96.74 1321 1313 O_____P__OP_O_ jtwc_sh SH071961 -15.40 96.30 -1 -15.40 96.40 1000 -15.40 96.30 TC 25 -15.37 96.33 7 -15.70 96.70 TC 20 6 147
1961 SI WA 07:00:00 TS -15.26 96.80 1000 bom 1321 1313 P_____O__PP_P_ SH071961 -15.48 96.37 -1 -15.50 96.50 1000 -15.48 96.37 TC 25 -15.45 96.40 7 -15.78 96.79 TC 20 6 139
1961 SI WA 09:00:00 TS -15.41 96.95 1321 1314 P_____P__PP_P_ SH071961 -15.65 96.53 -1 -15.64 96.64 1000 -15.65 96.53 TC 25 -15.62 96.56 7 -15.95 96.95 TC 20 6 130
1961 SI WA 10:00:00 TS -15.46 97.04 1000 bom 1322 1307 P_____O__PP_P_ SH071961 -15.73 96.62 -1 -15.70 96.70 1000 -15.73 96.62 TC 25 -15.70 96.65 7 -16.03 97.04 TC 20 6 126
1961 SI WA 12:00:00 TS -15.59 97.21 1316 1308 O_____P__OP_O_ jtwc_sh SH071961 -15.90 96.80 -1 -15.85 96.85 1000 -15.90 96.80 TC 25 -15.87 96.82 7 -16.20 97.20 TC 20 6 133
1961 SI WA 15:00:00 TS -15.79 97.41 1318 1318 ______P___P___ SH071961 -1 -16.11 97.11 1000 TC -16.12 97.10 7 TC 5 139
1961 SI WA 16:00:00 TS -15.86 97.46 1000 bom 1320 1320 ______O___O___ SH071961 -1 -16.20 97.20 1000 TC -16.20 97.20 7 TC 6 149
1961 SI WA 18:00:00 TS -16.03 97.56 1321 1321 ______P_______ -1 -16.40 97.40 1000 7 6 152
1961 SI WA 19:00:00 TS -16.11 97.60 1000 bom 1330 1330 ______O_______ -1 -16.50 97.50 1000 7 7 155
1961 SI WA 21:00:00 TS -16.35 97.71 1341 1343 ______P_______ -1 -16.71 97.71 1000 7 8 155
1961 SI WA 22:00:00 TS -16.46 97.77 1000 bom 1352 1352 ______O_______ -1 -16.80 97.80 1000 7 7 155
1961 SI WA 1961-01-03 00:00:00 TS -16.68 97.88 1363 1363 ______P_______ -1 -16.94 97.94 1000 7 12 158
1961 SI WA 01:00:00 NR -17.00 98.00 1000 bom 1384 ______O_______ -1 -17.00 98.00 1000 7 21 160